sensor_id;sensor_type;location;lat;lon;timestamp;P1;durP1;ratioP1;P2;durP2;ratioP2
42420;SDS011;28063;48.140;11.588;2023-07-16T00:00:29;4.05;;;3.70;;
42420;SDS011;28063;48.140;11.588;2023-07-16T00:02:55;4.82;;;3.97;;
42420;SDS011;28063;48.140;11.588;2023-07-16T00:05:21;6.95;;;4.07;;
42420;SDS011;28063;48.140;11.588;2023-07-16T00:07:47;5.30;;;3.55;;
42420;SDS011;28063;48.140;11.588;2023-07-16T00:10:13;7.45;;;3.58;;
42420;SDS011;28063;48.140;11.588;2023-07-16T00:12:39;9.98;;;4.30;;
42420;SDS011;28063;48.140;11.588;2023-07-16T00:15:05;4.50;;;3.50;;
42420;SDS011;28063;48.140;11.588;2023-07-16T00:17:31;4.72;;;3.42;;
42420;SDS011;28063;48.140;11.588;2023-07-16T00:19:58;4.90;;;3.75;;
42420;SDS011;28063;48.140;11.588;2023-07-16T00:22:24;5.60;;;4.07;;
42420;SDS011;28063;48.140;11.588;2023-07-16T00:24:49;5.20;;;4.53;;
42420;SDS011;28063;48.140;11.588;2023-07-16T00:27:15;5.40;;;4.22;;
42420;SDS011;28063;48.140;11.588;2023-07-16T00:29:41;4.95;;;3.40;;
42420;SDS011;28063;48.140;11.588;2023-07-16T00:32:06;7.75;;;3.83;;
42420;SDS011;28063;48.140;11.588;2023-07-16T00:34:32;3.65;;;3.30;;
42420;SDS011;28063;48.140;11.588;2023-07-16T00:36:58;4.93;;;3.97;;
42420;SDS011;28063;48.140;11.588;2023-07-16T00:39:27;4.53;;;3.92;;
42420;SDS011;28063;48.140;11.588;2023-07-16T00:41:53;4.65;;;3.97;;
42420;SDS011;28063;48.140;11.588;2023-07-16T00:44:19;3.58;;;3.28;;
42420;SDS011;28063;48.140;11.588;2023-07-16T00:46:45;3.30;;;3.00;;
42420;SDS011;28063;48.140;11.588;2023-07-16T00:49:10;4.07;;;3.67;;
42420;SDS011;28063;48.140;11.588;2023-07-16T00:51:36;4.25;;;3.85;;
42420;SDS011;28063;48.140;11.588;2023-07-16T00:54:02;5.25;;;3.50;;
42420;SDS011;28063;48.140;11.588;2023-07-16T00:56:29;4.57;;;3.58;;
42420;SDS011;28063;48.140;11.588;2023-07-16T00:58:54;3.78;;;3.35;;
42420;SDS011;28063;48.140;11.588;2023-07-16T01:01:20;3.47;;;3.17;;
42420;SDS011;28063;48.140;11.588;2023-07-16T01:03:46;5.50;;;3.70;;
42420;SDS011;28063;48.140;11.588;2023-07-16T01:08:47;5.13;;;4.07;;
42420;SDS011;28063;48.140;11.588;2023-07-16T01:11:18;5.50;;;4.25;;
42420;SDS011;28063;48.140;11.588;2023-07-16T01:13:44;5.13;;;4.63;;
42420;SDS011;28063;48.140;11.588;2023-07-16T01:16:19;4.82;;;4.32;;
42420;SDS011;28063;48.140;11.588;2023-07-16T01:18:46;4.97;;;4.45;;
42420;SDS011;28063;48.140;11.588;2023-07-16T01:21:13;4.65;;;3.97;;
42420;SDS011;28063;48.140;11.588;2023-07-16T01:29:21;5.65;;;4.13;;
42420;SDS011;28063;48.140;11.588;2023-07-16T01:31:57;10.03;;;4.67;;
42420;SDS011;28063;48.140;11.588;2023-07-16T01:34:26;5.35;;;4.35;;
42420;SDS011;28063;48.140;11.588;2023-07-16T01:36:54;5.40;;;4.70;;
42420;SDS011;28063;48.140;11.588;2023-07-16T01:39:20;5.40;;;4.20;;
42420;SDS011;28063;48.140;11.588;2023-07-16T01:41:46;6.40;;;4.50;;
42420;SDS011;28063;48.140;11.588;2023-07-16T01:44:12;5.47;;;4.38;;
42420;SDS011;28063;48.140;11.588;2023-07-16T01:46:38;7.47;;;4.20;;
42420;SDS011;28063;48.140;11.588;2023-07-16T01:49:03;7.30;;;4.25;;
42420;SDS011;28063;48.140;11.588;2023-07-16T01:51:29;8.63;;;4.63;;
42420;SDS011;28063;48.140;11.588;2023-07-16T01:53:55;5.93;;;4.32;;
42420;SDS011;28063;48.140;11.588;2023-07-16T01:56:20;5.00;;;4.25;;
42420;SDS011;28063;48.140;11.588;2023-07-16T01:58:46;7.25;;;4.32;;
42420;SDS011;28063;48.140;11.588;2023-07-16T02:01:12;6.75;;;4.88;;
42420;SDS011;28063;48.140;11.588;2023-07-16T02:03:38;9.00;;;5.15;;
42420;SDS011;28063;48.140;11.588;2023-07-16T02:06:03;5.43;;;4.38;;
42420;SDS011;28063;48.140;11.588;2023-07-16T02:08:29;5.32;;;4.82;;
42420;SDS011;28063;48.140;11.588;2023-07-16T02:10:54;5.63;;;5.13;;
42420;SDS011;28063;48.140;11.588;2023-07-16T02:13:20;7.03;;;5.30;;
42420;SDS011;28063;48.140;11.588;2023-07-16T02:15:46;5.78;;;4.78;;
42420;SDS011;28063;48.140;11.588;2023-07-16T02:18:11;5.47;;;4.47;;
42420;SDS011;28063;48.140;11.588;2023-07-16T02:20:37;6.93;;;5.18;;
42420;SDS011;28063;48.140;11.588;2023-07-16T02:23:03;6.72;;;5.07;;
42420;SDS011;28063;48.140;11.588;2023-07-16T02:25:29;5.30;;;4.53;;
42420;SDS011;28063;48.140;11.588;2023-07-16T02:27:54;5.30;;;4.10;;
42420;SDS011;28063;48.140;11.588;2023-07-16T02:30:20;6.85;;;4.40;;
42420;SDS011;28063;48.140;11.588;2023-07-16T02:32:46;5.45;;;4.32;;
42420;SDS011;28063;48.140;11.588;2023-07-16T02:35:12;4.78;;;4.38;;
42420;SDS011;28063;48.140;11.588;2023-07-16T02:37:38;7.40;;;4.22;;
42420;SDS011;28063;48.140;11.588;2023-07-16T02:40:05;4.88;;;4.47;;
42420;SDS011;28063;48.140;11.588;2023-07-16T02:42:32;6.85;;;4.13;;
42420;SDS011;28063;48.140;11.588;2023-07-16T02:44:57;3.80;;;3.50;;
42420;SDS011;28063;48.140;11.588;2023-07-16T02:47:23;5.47;;;4.28;;
42420;SDS011;28063;48.140;11.588;2023-07-16T02:49:50;4.85;;;4.30;;
42420;SDS011;28063;48.140;11.588;2023-07-16T02:52:17;7.13;;;4.80;;
42420;SDS011;28063;48.140;11.588;2023-07-16T02:54:42;4.90;;;4.20;;
42420;SDS011;28063;48.140;11.588;2023-07-16T02:57:08;5.72;;;4.05;;
42420;SDS011;28063;48.140;11.588;2023-07-16T02:59:34;5.65;;;4.65;;
42420;SDS011;28063;48.140;11.588;2023-07-16T03:01:59;5.35;;;4.13;;
42420;SDS011;28063;48.140;11.588;2023-07-16T03:04:25;4.80;;;4.35;;
42420;SDS011;28063;48.140;11.588;2023-07-16T03:06:51;5.05;;;3.60;;
42420;SDS011;28063;48.140;11.588;2023-07-16T03:09:16;5.22;;;3.83;;
42420;SDS011;28063;48.140;11.588;2023-07-16T03:11:42;5.93;;;3.60;;
42420;SDS011;28063;48.140;11.588;2023-07-16T03:14:08;4.63;;;3.70;;
42420;SDS011;28063;48.140;11.588;2023-07-16T03:16:33;5.15;;;3.38;;
42420;SDS011;28063;48.140;11.588;2023-07-16T03:18:59;5.03;;;4.03;;
42420;SDS011;28063;48.140;11.588;2023-07-16T03:21:24;4.43;;;3.28;;
42420;SDS011;28063;48.140;11.588;2023-07-16T03:23:50;5.03;;;3.30;;
42420;SDS011;28063;48.140;11.588;2023-07-16T03:26:16;2.78;;;2.58;;
42420;SDS011;28063;48.140;11.588;2023-07-16T03:28:41;3.03;;;2.80;;
42420;SDS011;28063;48.140;11.588;2023-07-16T03:31:07;4.88;;;3.13;;
42420;SDS011;28063;48.140;11.588;2023-07-16T03:33:33;3.30;;;3.00;;
42420;SDS011;28063;48.140;11.588;2023-07-16T03:35:58;4.18;;;3.30;;
42420;SDS011;28063;48.140;11.588;2023-07-16T03:38:24;3.50;;;2.72;;
42420;SDS011;28063;48.140;11.588;2023-07-16T03:40:49;3.63;;;3.08;;
42420;SDS011;28063;48.140;11.588;2023-07-16T03:43:16;4.55;;;3.17;;
42420;SDS011;28063;48.140;11.588;2023-07-16T03:45:42;5.10;;;2.92;;
42420;SDS011;28063;48.140;11.588;2023-07-16T03:48:08;2.92;;;2.70;;
42420;SDS011;28063;48.140;11.588;2023-07-16T03:50:33;4.13;;;3.10;;
42420;SDS011;28063;48.140;11.588;2023-07-16T03:52:59;4.30;;;3.10;;
42420;SDS011;28063;48.140;11.588;2023-07-16T03:55:25;3.92;;;2.88;;
42420;SDS011;28063;48.140;11.588;2023-07-16T03:57:51;2.95;;;2.72;;
42420;SDS011;28063;48.140;11.588;2023-07-16T04:00:17;3.10;;;2.72;;
42420;SDS011;28063;48.140;11.588;2023-07-16T04:02:43;4.10;;;3.05;;
42420;SDS011;28063;48.140;11.588;2023-07-16T04:05:08;2.78;;;2.50;;
42420;SDS011;28063;48.140;11.588;2023-07-16T04:07:34;5.38;;;2.70;;
42420;SDS011;28063;48.140;11.588;2023-07-16T04:10:00;3.17;;;2.65;;
42420;SDS011;28063;48.140;11.588;2023-07-16T04:12:26;2.72;;;2.53;;
42420;SDS011;28063;48.140;11.588;2023-07-16T04:14:55;2.53;;;2.33;;
42420;SDS011;28063;48.140;11.588;2023-07-16T04:17:22;2.40;;;2.20;;
42420;SDS011;28063;48.140;11.588;2023-07-16T04:19:48;2.47;;;2.28;;
42420;SDS011;28063;48.140;11.588;2023-07-16T04:22:14;2.60;;;2.40;;
42420;SDS011;28063;48.140;11.588;2023-07-16T04:24:39;2.30;;;1.98;;
42420;SDS011;28063;48.140;11.588;2023-07-16T04:27:05;3.10;;;2.40;;
42420;SDS011;28063;48.140;11.588;2023-07-16T04:29:31;2.95;;;2.67;;
42420;SDS011;28063;48.140;11.588;2023-07-16T04:31:56;4.35;;;2.30;;
42420;SDS011;28063;48.140;11.588;2023-07-16T04:34:22;2.80;;;2.60;;
42420;SDS011;28063;48.140;11.588;2023-07-16T04:36:47;2.70;;;2.50;;
42420;SDS011;28063;48.140;11.588;2023-07-16T04:39:13;2.55;;;2.35;;
42420;SDS011;28063;48.140;11.588;2023-07-16T04:41:39;2.30;;;2.10;;
42420;SDS011;28063;48.140;11.588;2023-07-16T04:44:05;1.92;;;1.83;;
42420;SDS011;28063;48.140;11.588;2023-07-16T04:46:30;2.08;;;1.88;;
42420;SDS011;28063;48.140;11.588;2023-07-16T04:48:56;2.05;;;1.95;;
42420;SDS011;28063;48.140;11.588;2023-07-16T04:51:22;2.10;;;2.00;;
42420;SDS011;28063;48.140;11.588;2023-07-16T04:53:48;1.98;;;1.88;;
42420;SDS011;28063;48.140;11.588;2023-07-16T04:56:14;1.65;;;1.60;;
42420;SDS011;28063;48.140;11.588;2023-07-16T04:58:41;1.95;;;1.85;;
42420;SDS011;28063;48.140;11.588;2023-07-16T05:01:08;1.80;;;1.33;;
42420;SDS011;28063;48.140;11.588;2023-07-16T05:03:34;1.63;;;1.52;;
42420;SDS011;28063;48.140;11.588;2023-07-16T05:06:00;1.48;;;1.38;;
42420;SDS011;28063;48.140;11.588;2023-07-16T05:08:26;1.48;;;1.38;;
42420;SDS011;28063;48.140;11.588;2023-07-16T05:10:52;1.63;;;1.52;;
42420;SDS011;28063;48.140;11.588;2023-07-16T05:13:17;0.95;;;0.95;;
42420;SDS011;28063;48.140;11.588;2023-07-16T05:15:43;1.25;;;1.20;;
42420;SDS011;28063;48.140;11.588;2023-07-16T05:18:10;1.23;;;1.10;;
42420;SDS011;28063;48.140;11.588;2023-07-16T05:20:36;0.93;;;0.93;;
42420;SDS011;28063;48.140;11.588;2023-07-16T05:23:02;0.88;;;0.88;;
42420;SDS011;28063;48.140;11.588;2023-07-16T05:25:28;1.00;;;1.00;;
42420;SDS011;28063;48.140;11.588;2023-07-16T05:27:54;0.80;;;0.80;;
42420;SDS011;28063;48.140;11.588;2023-07-16T05:30:20;0.80;;;0.80;;
42420;SDS011;28063;48.140;11.588;2023-07-16T05:32:46;0.70;;;0.70;;
42420;SDS011;28063;48.140;11.588;2023-07-16T05:35:11;0.88;;;0.88;;
42420;SDS011;28063;48.140;11.588;2023-07-16T05:37:37;0.70;;;0.70;;
42420;SDS011;28063;48.140;11.588;2023-07-16T05:40:03;0.88;;;0.88;;
42420;SDS011;28063;48.140;11.588;2023-07-16T05:42:29;0.70;;;0.70;;
42420;SDS011;28063;48.140;11.588;2023-07-16T05:44:55;0.70;;;0.70;;
42420;SDS011;28063;48.140;11.588;2023-07-16T05:47:20;0.82;;;0.82;;
42420;SDS011;28063;48.140;11.588;2023-07-16T05:49:46;0.65;;;0.65;;
42420;SDS011;28063;48.140;11.588;2023-07-16T05:52:12;0.57;;;0.57;;
42420;SDS011;28063;48.140;11.588;2023-07-16T05:54:38;0.80;;;0.80;;
42420;SDS011;28063;48.140;11.588;2023-07-16T05:57:04;1.00;;;1.00;;
42420;SDS011;28063;48.140;11.588;2023-07-16T05:59:30;0.90;;;0.90;;
42420;SDS011;28063;48.140;11.588;2023-07-16T06:01:59;1.13;;;1.10;;
42420;SDS011;28063;48.140;11.588;2023-07-16T06:04:25;0.70;;;0.70;;
42420;SDS011;28063;48.140;11.588;2023-07-16T06:06:50;0.77;;;0.77;;
42420;SDS011;28063;48.140;11.588;2023-07-16T06:09:16;0.75;;;0.75;;
42420;SDS011;28063;48.140;11.588;2023-07-16T06:11:42;0.75;;;0.75;;
42420;SDS011;28063;48.140;11.588;2023-07-16T06:14:08;0.90;;;0.90;;
42420;SDS011;28063;48.140;11.588;2023-07-16T06:16:34;0.80;;;0.80;;
42420;SDS011;28063;48.140;11.588;2023-07-16T06:18:59;0.73;;;0.73;;
42420;SDS011;28063;48.140;11.588;2023-07-16T06:21:25;1.00;;;1.00;;
42420;SDS011;28063;48.140;11.588;2023-07-16T06:23:50;1.08;;;1.08;;
42420;SDS011;28063;48.140;11.588;2023-07-16T06:26:16;1.23;;;1.20;;
42420;SDS011;28063;48.140;11.588;2023-07-16T06:28:42;1.27;;;1.17;;
42420;SDS011;28063;48.140;11.588;2023-07-16T06:31:07;1.50;;;1.40;;
42420;SDS011;28063;48.140;11.588;2023-07-16T06:33:33;1.13;;;1.13;;
42420;SDS011;28063;48.140;11.588;2023-07-16T06:35:59;1.25;;;1.20;;
42420;SDS011;28063;48.140;11.588;2023-07-16T06:38:24;1.25;;;1.25;;
42420;SDS011;28063;48.140;11.588;2023-07-16T06:40:52;1.00;;;1.00;;
42420;SDS011;28063;48.140;11.588;2023-07-16T06:43:19;1.30;;;1.20;;
42420;SDS011;28063;48.140;11.588;2023-07-16T06:45:44;1.20;;;1.20;;
42420;SDS011;28063;48.140;11.588;2023-07-16T06:48:10;1.20;;;1.10;;
42420;SDS011;28063;48.140;11.588;2023-07-16T06:50:36;1.27;;;1.27;;
42420;SDS011;28063;48.140;11.588;2023-07-16T06:53:01;1.20;;;1.10;;
42420;SDS011;28063;48.140;11.588;2023-07-16T06:55:27;1.35;;;1.20;;
42420;SDS011;28063;48.140;11.588;2023-07-16T06:57:55;1.00;;;1.00;;
42420;SDS011;28063;48.140;11.588;2023-07-16T07:00:21;1.33;;;1.30;;
42420;SDS011;28063;48.140;11.588;2023-07-16T07:02:47;2.10;;;1.30;;
42420;SDS011;28063;48.140;11.588;2023-07-16T07:05:12;1.50;;;1.20;;
42420;SDS011;28063;48.140;11.588;2023-07-16T07:07:38;0.93;;;0.93;;
42420;SDS011;28063;48.140;11.588;2023-07-16T07:10:04;1.55;;;1.45;;
42420;SDS011;28063;48.140;11.588;2023-07-16T07:12:29;1.10;;;1.10;;
42420;SDS011;28063;48.140;11.588;2023-07-16T07:15:02;1.10;;;1.10;;
42420;SDS011;28063;48.140;11.588;2023-07-16T07:17:29;1.02;;;1.02;;
42420;SDS011;28063;48.140;11.588;2023-07-16T07:19:54;1.17;;;1.08;;
42420;SDS011;28063;48.140;11.588;2023-07-16T07:22:20;1.35;;;1.25;;
42420;SDS011;28063;48.140;11.588;2023-07-16T07:24:46;1.40;;;1.30;;
42420;SDS011;28063;48.140;11.588;2023-07-16T07:27:11;1.10;;;1.05;;
42420;SDS011;28063;48.140;11.588;2023-07-16T07:29:37;1.20;;;1.08;;
42420;SDS011;28063;48.140;11.588;2023-07-16T07:32:03;1.70;;;1.10;;
42420;SDS011;28063;48.140;11.588;2023-07-16T07:34:28;1.30;;;1.20;;
42420;SDS011;28063;48.140;11.588;2023-07-16T07:36:54;1.20;;;1.20;;
42420;SDS011;28063;48.140;11.588;2023-07-16T07:39:20;1.17;;;1.02;;
42420;SDS011;28063;48.140;11.588;2023-07-16T07:41:45;1.23;;;1.15;;
42420;SDS011;28063;48.140;11.588;2023-07-16T07:44:11;1.40;;;1.30;;
42420;SDS011;28063;48.140;11.588;2023-07-16T07:46:36;1.17;;;1.13;;
42420;SDS011;28063;48.140;11.588;2023-07-16T07:49:02;1.38;;;1.25;;
42420;SDS011;28063;48.140;11.588;2023-07-16T07:51:28;1.55;;;1.30;;
42420;SDS011;28063;48.140;11.588;2023-07-16T07:53:53;1.17;;;1.08;;
42420;SDS011;28063;48.140;11.588;2023-07-16T07:56:19;1.10;;;1.10;;
42420;SDS011;28063;48.140;11.588;2023-07-16T07:58:45;1.17;;;1.15;;
42420;SDS011;28063;48.140;11.588;2023-07-16T08:01:10;0.98;;;0.98;;
42420;SDS011;28063;48.140;11.588;2023-07-16T08:03:36;1.13;;;1.02;;
42420;SDS011;28063;48.140;11.588;2023-07-16T08:06:02;1.02;;;1.02;;
42420;SDS011;28063;48.140;11.588;2023-07-16T08:08:28;1.38;;;1.27;;
42420;SDS011;28063;48.140;11.588;2023-07-16T08:10:54;0.93;;;0.93;;
42420;SDS011;28063;48.140;11.588;2023-07-16T08:13:20;0.98;;;0.98;;
42420;SDS011;28063;48.140;11.588;2023-07-16T08:15:45;1.60;;;1.50;;
42420;SDS011;28063;48.140;11.588;2023-07-16T08:18:12;1.10;;;1.00;;
42420;SDS011;28063;48.140;11.588;2023-07-16T08:20:38;1.17;;;1.10;;
42420;SDS011;28063;48.140;11.588;2023-07-16T08:23:06;1.17;;;1.08;;
42420;SDS011;28063;48.140;11.588;2023-07-16T08:25:32;1.27;;;1.20;;
42420;SDS011;28063;48.140;11.588;2023-07-16T08:27:58;0.98;;;0.98;;
42420;SDS011;28063;48.140;11.588;2023-07-16T08:30:24;0.90;;;0.90;;
42420;SDS011;28063;48.140;11.588;2023-07-16T08:32:50;0.80;;;0.80;;
42420;SDS011;28063;48.140;11.588;2023-07-16T08:35:16;0.80;;;0.80;;
42420;SDS011;28063;48.140;11.588;2023-07-16T08:37:44;0.82;;;0.82;;
42420;SDS011;28063;48.140;11.588;2023-07-16T08:40:11;0.88;;;0.88;;
42420;SDS011;28063;48.140;11.588;2023-07-16T08:42:38;0.80;;;0.80;;
42420;SDS011;28063;48.140;11.588;2023-07-16T08:45:08;0.70;;;0.70;;
42420;SDS011;28063;48.140;11.588;2023-07-16T08:47:35;0.80;;;0.80;;
42420;SDS011;28063;48.140;11.588;2023-07-16T08:50:01;0.93;;;0.93;;
42420;SDS011;28063;48.140;11.588;2023-07-16T08:52:27;1.17;;;1.08;;
42420;SDS011;28063;48.140;11.588;2023-07-16T08:54:53;0.85;;;0.85;;
42420;SDS011;28063;48.140;11.588;2023-07-16T08:57:19;0.80;;;0.80;;
42420;SDS011;28063;48.140;11.588;2023-07-16T08:59:50;0.80;;;0.80;;
42420;SDS011;28063;48.140;11.588;2023-07-16T09:02:19;0.77;;;0.77;;
42420;SDS011;28063;48.140;11.588;2023-07-16T09:04:49;1.05;;;1.00;;
42420;SDS011;28063;48.140;11.588;2023-07-16T09:07:18;0.85;;;0.85;;
42420;SDS011;28063;48.140;11.588;2023-07-16T09:09:54;0.75;;;0.75;;
42420;SDS011;28063;48.140;11.588;2023-07-16T09:12:23;0.80;;;0.80;;
42420;SDS011;28063;48.140;11.588;2023-07-16T09:14:49;0.85;;;0.85;;
42420;SDS011;28063;48.140;11.588;2023-07-16T09:17:19;0.70;;;0.70;;
42420;SDS011;28063;48.140;11.588;2023-07-16T09:19:51;0.98;;;0.98;;
42420;SDS011;28063;48.140;11.588;2023-07-16T09:22:17;0.90;;;0.90;;
42420;SDS011;28063;48.140;11.588;2023-07-16T09:24:44;0.60;;;0.60;;
42420;SDS011;28063;48.140;11.588;2023-07-16T09:27:11;0.90;;;0.90;;
42420;SDS011;28063;48.140;11.588;2023-07-16T09:29:37;0.80;;;0.80;;
42420;SDS011;28063;48.140;11.588;2023-07-16T09:32:04;0.75;;;0.75;;
42420;SDS011;28063;48.140;11.588;2023-07-16T09:34:32;0.60;;;0.60;;
42420;SDS011;28063;48.140;11.588;2023-07-16T09:36:59;1.00;;;1.00;;
42420;SDS011;28063;48.140;11.588;2023-07-16T09:39:25;0.70;;;0.70;;
42420;SDS011;28063;48.140;11.588;2023-07-16T09:41:52;1.00;;;1.00;;
42420;SDS011;28063;48.140;11.588;2023-07-16T09:44:18;0.80;;;0.80;;
42420;SDS011;28063;48.140;11.588;2023-07-16T09:46:45;0.70;;;0.70;;
42420;SDS011;28063;48.140;11.588;2023-07-16T09:49:11;0.80;;;0.80;;
42420;SDS011;28063;48.140;11.588;2023-07-16T09:51:39;0.75;;;0.75;;
42420;SDS011;28063;48.140;11.588;2023-07-16T09:54:06;0.80;;;0.80;;
42420;SDS011;28063;48.140;11.588;2023-07-16T09:56:34;0.80;;;0.80;;
42420;SDS011;28063;48.140;11.588;2023-07-16T09:59:02;0.93;;;0.88;;
42420;SDS011;28063;48.140;11.588;2023-07-16T10:01:36;0.88;;;0.88;;
42420;SDS011;28063;48.140;11.588;2023-07-16T10:04:37;0.80;;;0.80;;
42420;SDS011;28063;48.140;11.588;2023-07-16T10:07:03;1.00;;;1.00;;
42420;SDS011;28063;48.140;11.588;2023-07-16T10:09:38;0.57;;;0.57;;
42420;SDS011;28063;48.140;11.588;2023-07-16T10:14:54;1.17;;;1.17;;
42420;SDS011;28063;48.140;11.588;2023-07-16T10:17:25;1.20;;;1.20;;
42420;SDS011;28063;48.140;11.588;2023-07-16T10:19:58;1.58;;;1.48;;
42420;SDS011;28063;48.140;11.588;2023-07-16T10:22:38;0.90;;;0.90;;
42420;SDS011;28063;48.140;11.588;2023-07-16T10:25:07;1.20;;;1.20;;
42420;SDS011;28063;48.140;11.588;2023-07-16T10:27:42;1.48;;;1.40;;
42420;SDS011;28063;48.140;11.588;2023-07-16T10:30:08;1.48;;;1.30;;
42420;SDS011;28063;48.140;11.588;2023-07-16T10:32:34;0.90;;;0.90;;
42420;SDS011;28063;48.140;11.588;2023-07-16T10:35:00;1.65;;;1.55;;
42420;SDS011;28063;48.140;11.588;2023-07-16T10:37:27;1.10;;;1.10;;
42420;SDS011;28063;48.140;11.588;2023-07-16T10:39:57;1.52;;;1.42;;
42420;SDS011;28063;48.140;11.588;2023-07-16T10:42:23;1.27;;;1.17;;
42420;SDS011;28063;48.140;11.588;2023-07-16T10:45:08;1.27;;;1.17;;
42420;SDS011;28063;48.140;11.588;2023-07-16T10:47:35;1.02;;;1.00;;
42420;SDS011;28063;48.140;11.588;2023-07-16T10:50:03;1.00;;;1.00;;
42420;SDS011;28063;48.140;11.588;2023-07-16T10:52:33;1.42;;;1.27;;
42420;SDS011;28063;48.140;11.588;2023-07-16T10:54:59;1.30;;;1.20;;
42420;SDS011;28063;48.140;11.588;2023-07-16T10:57:25;1.40;;;1.30;;
42420;SDS011;28063;48.140;11.588;2023-07-16T10:59:52;0.98;;;0.98;;
42420;SDS011;28063;48.140;11.588;2023-07-16T11:02:20;1.23;;;1.17;;
42420;SDS011;28063;48.140;11.588;2023-07-16T11:04:47;1.23;;;1.23;;
42420;SDS011;28063;48.140;11.588;2023-07-16T11:07:13;1.17;;;1.05;;
42420;SDS011;28063;48.140;11.588;2023-07-16T11:09:43;0.90;;;0.90;;
42420;SDS011;28063;48.140;11.588;2023-07-16T11:12:31;1.08;;;1.00;;
42420;SDS011;28063;48.140;11.588;2023-07-16T11:14:57;1.02;;;1.02;;
42420;SDS011;28063;48.140;11.588;2023-07-16T11:17:23;1.15;;;1.05;;
42420;SDS011;28063;48.140;11.588;2023-07-16T11:19:50;1.15;;;1.15;;
42420;SDS011;28063;48.140;11.588;2023-07-16T11:22:17;1.27;;;1.27;;
42420;SDS011;28063;48.140;11.588;2023-07-16T11:29:53;1.20;;;1.20;;
42420;SDS011;28063;48.140;11.588;2023-07-16T11:34:56;1.20;;;1.20;;
42420;SDS011;28063;48.140;11.588;2023-07-16T11:37:27;2.40;;;1.55;;
42420;SDS011;28063;48.140;11.588;2023-07-16T11:39:57;1.42;;;1.40;;
42420;SDS011;28063;48.140;11.588;2023-07-16T11:42:29;1.80;;;1.70;;
42420;SDS011;28063;48.140;11.588;2023-07-16T11:44:55;1.30;;;1.25;;
42420;SDS011;28063;48.140;11.588;2023-07-16T11:47:22;1.73;;;1.63;;
42420;SDS011;28063;48.140;11.588;2023-07-16T11:49:48;1.48;;;1.38;;
42420;SDS011;28063;48.140;11.588;2023-07-16T11:52:14;1.70;;;1.60;;
42420;SDS011;28063;48.140;11.588;2023-07-16T11:54:43;1.42;;;1.42;;
42420;SDS011;28063;48.140;11.588;2023-07-16T11:57:09;1.30;;;1.30;;
42420;SDS011;28063;48.140;11.588;2023-07-16T11:59:35;1.52;;;1.42;;
42420;SDS011;28063;48.140;11.588;2023-07-16T12:02:01;1.58;;;1.48;;
42420;SDS011;28063;48.140;11.588;2023-07-16T12:04:28;1.60;;;1.50;;
42420;SDS011;28063;48.140;11.588;2023-07-16T12:06:54;1.20;;;1.20;;
42420;SDS011;28063;48.140;11.588;2023-07-16T12:09:19;1.30;;;1.30;;
42420;SDS011;28063;48.140;11.588;2023-07-16T12:11:45;1.40;;;1.30;;
42420;SDS011;28063;48.140;11.588;2023-07-16T12:14:11;3.17;;;1.50;;
42420;SDS011;28063;48.140;11.588;2023-07-16T12:16:38;2.58;;;2.08;;
42420;SDS011;28063;48.140;11.588;2023-07-16T12:19:04;1.75;;;1.67;;
42420;SDS011;28063;48.140;11.588;2023-07-16T12:21:32;1.73;;;1.63;;
42420;SDS011;28063;48.140;11.588;2023-07-16T12:23:57;1.92;;;1.70;;
42420;SDS011;28063;48.140;11.588;2023-07-16T12:26:23;1.70;;;1.60;;
42420;SDS011;28063;48.140;11.588;2023-07-16T12:28:48;1.75;;;1.65;;
42420;SDS011;28063;48.140;11.588;2023-07-16T12:31:14;1.55;;;1.55;;
42420;SDS011;28063;48.140;11.588;2023-07-16T12:33:41;1.73;;;1.70;;
42420;SDS011;28063;48.140;11.588;2023-07-16T12:36:07;1.60;;;1.60;;
42420;SDS011;28063;48.140;11.588;2023-07-16T12:38:33;1.75;;;1.65;;
42420;SDS011;28063;48.140;11.588;2023-07-16T12:40:59;1.90;;;1.80;;
42420;SDS011;28063;48.140;11.588;2023-07-16T12:43:24;1.70;;;1.58;;
42420;SDS011;28063;48.140;11.588;2023-07-16T12:45:50;1.70;;;1.60;;
42420;SDS011;28063;48.140;11.588;2023-07-16T12:48:16;1.60;;;1.50;;
42420;SDS011;28063;48.140;11.588;2023-07-16T12:50:41;1.55;;;1.48;;
42420;SDS011;28063;48.140;11.588;2023-07-16T12:53:07;1.40;;;1.30;;
42420;SDS011;28063;48.140;11.588;2023-07-16T12:55:33;2.28;;;2.17;;
42420;SDS011;28063;48.140;11.588;2023-07-16T12:57:59;1.83;;;1.73;;
42420;SDS011;28063;48.140;11.588;2023-07-16T13:00:25;1.90;;;1.80;;
42420;SDS011;28063;48.140;11.588;2023-07-16T13:02:50;1.58;;;1.48;;
42420;SDS011;28063;48.140;11.588;2023-07-16T13:05:16;1.60;;;1.50;;
42420;SDS011;28063;48.140;11.588;2023-07-16T13:07:42;1.30;;;1.20;;
42420;SDS011;28063;48.140;11.588;2023-07-16T13:10:08;1.90;;;1.70;;
42420;SDS011;28063;48.140;11.588;2023-07-16T13:12:34;1.75;;;1.65;;
42420;SDS011;28063;48.140;11.588;2023-07-16T13:15:00;1.50;;;1.50;;
42420;SDS011;28063;48.140;11.588;2023-07-16T13:17:25;2.05;;;1.85;;
42420;SDS011;28063;48.140;11.588;2023-07-16T13:19:51;1.60;;;1.50;;
42420;SDS011;28063;48.140;11.588;2023-07-16T13:22:17;2.63;;;1.80;;
42420;SDS011;28063;48.140;11.588;2023-07-16T13:24:42;2.08;;;1.95;;
42420;SDS011;28063;48.140;11.588;2023-07-16T13:27:09;2.05;;;1.90;;
42420;SDS011;28063;48.140;11.588;2023-07-16T13:29:44;2.53;;;2.30;;
42420;SDS011;28063;48.140;11.588;2023-07-16T13:32:09;1.70;;;1.67;;
42420;SDS011;28063;48.140;11.588;2023-07-16T13:34:35;2.83;;;2.08;;
42420;SDS011;28063;48.140;11.588;2023-07-16T13:37:00;2.88;;;2.00;;
42420;SDS011;28063;48.140;11.588;2023-07-16T13:39:26;1.90;;;1.77;;
42420;SDS011;28063;48.140;11.588;2023-07-16T13:41:52;2.42;;;2.22;;
42420;SDS011;28063;48.140;11.588;2023-07-16T13:44:17;2.10;;;1.52;;
42420;SDS011;28063;48.140;11.588;2023-07-16T13:46:43;4.68;;;1.77;;
42420;SDS011;28063;48.140;11.588;2023-07-16T13:49:09;2.08;;;1.90;;
42420;SDS011;28063;48.140;11.588;2023-07-16T13:51:35;1.92;;;1.83;;
42420;SDS011;28063;48.140;11.588;2023-07-16T13:54:00;1.83;;;1.73;;
42420;SDS011;28063;48.140;11.588;2023-07-16T13:56:26;1.77;;;1.67;;
42420;SDS011;28063;48.140;11.588;2023-07-16T13:58:51;1.70;;;1.65;;
42420;SDS011;28063;48.140;11.588;2023-07-16T14:01:19;1.65;;;1.55;;
42420;SDS011;28063;48.140;11.588;2023-07-16T14:03:44;2.08;;;1.88;;
42420;SDS011;28063;48.140;11.588;2023-07-16T14:06:10;2.00;;;1.70;;
42420;SDS011;28063;48.140;11.588;2023-07-16T14:08:36;1.50;;;1.40;;
42420;SDS011;28063;48.140;11.588;2023-07-16T14:11:02;1.85;;;1.75;;
42420;SDS011;28063;48.140;11.588;2023-07-16T14:13:28;2.13;;;1.92;;
42420;SDS011;28063;48.140;11.588;2023-07-16T14:15:54;1.92;;;1.80;;
42420;SDS011;28063;48.140;11.588;2023-07-16T14:18:19;1.73;;;1.63;;
42420;SDS011;28063;48.140;11.588;2023-07-16T14:20:45;1.40;;;1.40;;
42420;SDS011;28063;48.140;11.588;2023-07-16T14:23:11;2.08;;;1.88;;
42420;SDS011;28063;48.140;11.588;2023-07-16T14:25:37;1.85;;;1.75;;
42420;SDS011;28063;48.140;11.588;2023-07-16T14:28:03;1.80;;;1.70;;
42420;SDS011;28063;48.140;11.588;2023-07-16T14:30:28;2.00;;;1.90;;
42420;SDS011;28063;48.140;11.588;2023-07-16T14:32:54;3.13;;;2.20;;
42420;SDS011;28063;48.140;11.588;2023-07-16T14:35:20;2.47;;;2.20;;
42420;SDS011;28063;48.140;11.588;2023-07-16T14:37:47;2.20;;;2.00;;
42420;SDS011;28063;48.140;11.588;2023-07-16T14:40:12;2.03;;;1.92;;
42420;SDS011;28063;48.140;11.588;2023-07-16T14:42:39;1.85;;;1.75;;
42420;SDS011;28063;48.140;11.588;2023-07-16T14:45:05;1.92;;;1.83;;
42420;SDS011;28063;48.140;11.588;2023-07-16T14:47:32;1.95;;;1.85;;